Time;durP1;ratioP1;P1;durP2;ratioP2;P2;SDS_P1;SDS_P2;PMS_P1;PMS_P2;Temp;Humidity;BMP_temperature;BMP_pressure;BME280_temperature;BME280_humidity;BME280_pressure;Samples;Min_cycle;Max_cycle;Signal;HPM_P1;HPM_P2
2022/06/15 00:00:39;;;;;;;3.65;2.20;;;15.10;99.90;;;;;;5065933;28;20227;-75
2022/06/15 00:03:36;;;;;;;6.35;2.80;;;15.10;99.90;;;;;;5077034;28;20239;-74
2022/06/15 00:06:28;;;;;;;6.78;2.90;;;15.00;99.90;;;;;;5079448;28;20216;-75
2022/06/15 00:09:16;;;;;;;7.60;2.65;;;15.00;99.90;;;;;;5076076;28;20224;-74
2022/06/15 00:12:07;;;;;;;7.13;2.65;;;15.10;99.90;;;;;;5075794;28;20263;-75
2022/06/15 00:14:56;;;;;;;5.78;3.00;;;15.00;99.90;;;;;;5083691;28;20763;-76
2022/06/15 00:17:45;;;;;;;4.10;2.50;;;14.90;99.90;;;;;;5062434;28;20227;-76
2022/06/15 00:20:35;;;;;;;5.07;2.60;;;14.80;99.90;;;;;;5067052;28;20253;-75
2022/06/15 00:23:23;;;;;;;7.07;2.92;;;14.90;99.90;;;;;;5075616;28;20218;-76
2022/06/15 00:26:13;;;;;;;6.53;3.00;;;14.80;99.90;;;;;;5078381;28;20223;-75
2022/06/15 00:29:02;;;;;;;8.18;2.90;;;14.80;99.90;;;;;;5062663;28;20357;-76
2022/06/15 00:31:51;;;;;;;7.53;2.72;;;14.70;99.90;;;;;;5066231;28;20208;-75
2022/06/15 00:34:40;;;;;;;4.95;2.50;;;14.80;99.90;;;;;;5065833;28;20300;-75
2022/06/15 00:37:30;;;;;;;6.70;2.90;;;14.70;99.90;;;;;;5078195;28;20223;-76
2022/06/15 00:40:19;;;;;;;5.25;2.97;;;14.70;99.90;;;;;;5065401;28;20543;-76
2022/06/15 00:43:13;;;;;;;8.75;3.20;;;14.60;99.90;;;;;;5078788;28;20223;-76
2022/06/15 00:46:02;;;;;;;7.20;2.78;;;14.70;99.90;;;;;;5065223;28;20227;-77
2022/06/15 00:48:54;;;;;;;4.40;2.75;;;14.70;99.90;;;;;;5078495;28;20675;-74
2022/06/15 00:51:48;;;;;;;9.05;2.90;;;14.60;99.90;;;;;;5073196;28;20250;-76
2022/06/15 00:54:39;;;;;;;6.05;2.80;;;14.70;99.90;;;;;;5076261;28;20219;-75
2022/06/15 00:57:29;;;;;;;3.75;2.78;;;14.70;99.90;;;;;;5064130;28;20227;-75
2022/06/15 01:00:18;;;;;;;8.10;2.95;;;14.70;99.90;;;;;;5059876;28;20591;-75
2022/06/15 01:03:09;;;;;;;6.05;3.05;;;14.70;99.90;;;;;;5075207;28;20219;-75
2022/06/15 01:06:04;;;;;;;7.13;3.30;;;14.70;99.90;;;;;;5066051;28;20734;-75
2022/06/15 01:09:01;;;;;;;7.75;3.10;;;14.60;99.90;;;;;;5076459;28;21337;-75
2022/06/15 01:12:14;;;;;;;8.20;3.20;;;14.70;99.90;;;;;;5079529;28;20212;-77
2022/06/15 01:15:38;;;;;;;7.47;3.00;;;14.70;99.90;;;;;;5062339;28;20924;-77
2022/06/15 01:18:34;;;;;;;5.30;2.92;;;14.70;99.90;;;;;;5013314;28;20213;-76
2022/06/15 01:21:29;;;;;;;8.18;3.40;;;14.70;99.90;;;;;;5080859;28;20223;-77
2022/06/15 01:24:51;;;;;;;8.38;3.33;;;14.70;99.90;;;;;;5065653;28;20851;-76
2022/06/15 01:28:08;;;;;;;6.82;3.50;;;14.60;99.90;;;;;;5076049;28;20218;-77
2022/06/15 01:31:08;;;;;;;8.80;3.80;;;14.50;99.90;;;;;;5076332;28;20212;-75
2022/06/15 01:34:07;;;;;;;8.35;3.28;;;14.50;99.90;;;;;;5063494;28;20227;-75
2022/06/15 01:37:02;;;;;;;9.32;3.47;;;14.40;99.90;;;;;;5073118;28;20227;-76
2022/06/15 01:40:01;;;;;;;9.43;3.65;;;14.40;99.90;;;;;;5063957;28;20845;-76
2022/06/15 01:42:56;;;;;;;4.82;3.17;;;14.50;99.90;;;;;;5058009;28;20318;-76
2022/06/15 01:45:52;;;;;;;8.20;4.00;;;14.30;99.90;;;;;;5074907;28;20304;-75
2022/06/15 01:48:43;;;;;;;10.10;3.47;;;14.30;99.90;;;;;;5063624;28;20250;-75
2022/06/15 01:51:36;;;;;;;9.48;3.42;;;14.30;99.90;;;;;;5062405;28;20303;-75
2022/06/15 01:54:30;;;;;;;8.27;3.95;;;14.30;99.90;;;;;;5058747;28;20278;-75
2022/06/15 01:57:21;;;;;;;11.18;4.13;;;14.30;99.90;;;;;;5061598;28;20334;-74
2022/06/15 02:00:16;;;;;;;6.95;3.83;;;14.20;99.90;;;;;;5064881;28;20215;-79
2022/06/15 02:03:14;;;;;;;8.48;3.95;;;14.20;99.90;;;;;;5082341;28;20231;-74
2022/06/15 02:06:15;;;;;;;12.25;4.38;;;14.10;99.90;;;;;;5065079;28;20238;-74
2022/06/15 02:09:14;;;;;;;7.43;3.83;;;14.10;99.90;;;;;;5068951;28;20228;-76
2022/06/15 02:12:09;;;;;;;10.50;3.78;;;14.00;99.90;;;;;;5065166;28;20309;-74
2022/06/15 02:15:05;;;;;;;7.28;4.00;;;14.00;99.90;;;;;;5075821;28;20898;-73
2022/06/15 02:17:55;;;;;;;11.05;3.72;;;14.00;99.90;;;;;;5079927;28;20310;-74
2022/06/15 02:20:47;;;;;;;6.28;3.88;;;13.90;99.90;;;;;;5062586;28;20231;-75
2022/06/15 02:23:39;;;;;;;6.38;3.67;;;13.90;99.90;;;;;;5079881;28;20212;-73
2022/06/15 02:26:32;;;;;;;9.80;4.35;;;13.90;99.90;;;;;;5079533;28;20230;-73
2022/06/15 02:29:27;;;;;;;10.25;4.60;;;13.80;99.90;;;;;;5065162;28;20283;-72
2022/06/15 02:32:19;;;;;;;11.70;4.32;;;13.90;99.90;;;;;;5078163;28;20224;-73
2022/06/15 02:35:08;;;;;;;12.60;4.40;;;13.80;99.90;;;;;;5067896;28;20898;-74
2022/06/15 02:37:57;;;;;;;12.27;4.80;;;13.80;99.90;;;;;;5066479;28;20219;-75
2022/06/15 02:40:49;;;;;;;10.77;4.60;;;13.80;99.90;;;;;;5066983;28;20215;-75
2022/06/15 02:43:41;;;;;;;9.82;4.90;;;13.80;99.90;;;;;;5063786;28;20223;-75
2022/06/15 02:46:33;;;;;;;10.93;4.43;;;13.90;99.90;;;;;;5062426;28;20216;-73
2022/06/15 02:49:22;;;;;;;9.68;4.18;;;13.70;99.90;;;;;;5064693;28;20219;-73
2022/06/15 02:52:13;;;;;;;10.13;4.57;;;13.90;99.90;;;;;;5069244;28;20614;-75
2022/06/15 02:55:04;;;;;;;12.00;4.65;;;14.00;99.90;;;;;;5059477;28;20302;-75
2022/06/15 02:58:05;;;;;;;6.85;4.43;;;14.00;99.90;;;;;;5079548;28;20220;-75
2022/06/15 03:01:02;;;;;;;8.65;4.25;;;14.10;99.90;;;;;;5073510;28;20234;-75
2022/06/15 03:03:53;;;;;;;9.02;3.95;;;14.20;99.90;;;;;;5066148;28;20232;-77
2022/06/15 03:06:46;;;;;;;9.60;3.97;;;14.20;99.90;;;;;;5066117;28;20223;-76
2022/06/15 03:09:37;;;;;;;10.73;4.10;;;14.30;99.90;;;;;;5062986;28;21886;-74
2022/06/15 03:12:29;;;;;;;8.88;4.35;;;14.20;99.90;;;;;;5079046;28;20239;-75
2022/06/15 03:15:23;;;;;;;7.70;4.43;;;14.40;99.90;;;;;;5060202;28;20231;-74
2022/06/15 03:18:12;;;;;;;8.10;4.93;;;14.40;99.90;;;;;;5078845;28;20232;-75
2022/06/15 03:21:02;;;;;;;4.85;3.83;;;14.50;99.90;;;;;;5062781;28;20219;-75
2022/06/15 03:23:52;;;;;;;9.23;4.10;;;14.60;99.90;;;;;;5063011;28;20239;-75
2022/06/15 03:26:41;;;;;;;10.05;4.53;;;14.70;99.90;;;;;;5062153;28;20223;-75
2022/06/15 03:29:31;;;;;;;8.55;4.30;;;14.70;99.90;;;;;;5077331;28;20234;-75
2022/06/15 03:32:28;;;;;;;9.75;4.32;;;14.70;99.90;;;;;;5060502;28;20300;-74
2022/06/15 03:35:20;;;;;;;9.40;3.90;;;14.50;99.90;;;;;;5080204;28;20814;-75
2022/06/15 03:38:12;;;;;;;9.40;4.18;;;14.60;99.90;;;;;;5063983;28;20350;-76
2022/06/15 03:41:08;;;;;;;10.65;4.20;;;14.60;99.90;;;;;;5062809;28;20271;-76
2022/06/15 03:43:57;;;;;;;9.15;3.97;;;14.50;99.90;;;;;;5064444;28;20705;-75
2022/06/15 03:46:48;;;;;;;7.38;3.97;;;14.60;99.90;;;;;;5058577;28;20227;-78
2022/06/15 03:49:43;;;;;;;11.60;4.40;;;14.60;99.90;;;;;;5074476;28;20235;-78
2022/06/15 03:52:32;;;;;;;10.50;4.03;;;14.80;99.90;;;;;;5062335;28;20940;-78
2022/06/15 03:55:21;;;;;;;16.73;4.68;;;14.80;99.90;;;;;;5061888;28;20216;-78
2022/06/15 03:58:13;;;;;;;10.52;4.50;;;14.80;99.90;;;;;;5074471;28;20606;-79
2022/06/15 04:01:02;;;;;;;9.02;4.15;;;14.80;99.90;;;;;;5054044;28;20266;-76
2022/06/15 04:03:53;;;;;;;7.40;4.03;;;14.80;99.90;;;;;;5064423;28;20216;-75
2022/06/15 04:06:49;;;;;;;12.93;3.85;;;14.80;99.90;;;;;;5069960;28;20230;-74
2022/06/15 04:09:39;;;;;;;7.72;4.22;;;14.80;99.90;;;;;;5066035;28;20709;-76
2022/06/15 04:12:31;;;;;;;10.68;4.45;;;14.70;99.90;;;;;;5080507;28;20234;-75
2022/06/15 04:15:19;;;;;;;14.63;4.65;;;14.70;99.90;;;;;;5079716;28;20242;-75
2022/06/15 04:18:13;;;;;;;12.57;4.50;;;14.60;99.90;;;;;;5057430;28;20591;-75
2022/06/15 04:21:05;;;;;;;7.78;4.20;;;14.60;99.90;;;;;;5071172;28;20224;-74
2022/06/15 04:23:55;;;;;;;11.82;4.50;;;14.80;99.90;;;;;;5066189;28;20701;-75
2022/06/15 04:26:45;;;;;;;8.95;4.18;;;14.80;99.90;;;;;;5067182;28;20712;-77
2022/06/15 04:29:37;;;;;;;13.15;4.75;;;15.10;99.90;;;;;;5066820;28;20349;-76
2022/06/15 04:32:26;;;;;;;8.13;4.45;;;15.20;99.90;;;;;;5065553;28;20219;-76
2022/06/15 04:35:15;;;;;;;8.07;4.50;;;15.30;99.90;;;;;;5073898;28;20219;-73
2022/06/15 04:38:04;;;;;;;8.77;4.30;;;15.40;99.90;;;;;;5079971;28;20264;-75
2022/06/15 04:41:03;;;;;;;12.70;4.40;;;15.40;99.90;;;;;;5063837;28;20216;-73
2022/06/15 04:43:53;;;;;;;11.80;4.32;;;15.60;99.90;;;;;;5065260;28;20610;-74
2022/06/15 04:46:42;;;;;;;9.98;4.10;;;15.80;99.90;;;;;;5063929;28;20537;-74
2022/06/15 04:49:37;;;;;;;8.82;3.78;;;15.70;99.90;;;;;;5063855;28;20822;-73
2022/06/15 04:52:26;;;;;;;9.55;4.55;;;15.80;99.90;;;;;;5080973;28;20238;-73
2022/06/15 04:55:23;;;;;;;30.23;5.60;;;16.00;99.90;;;;;;5057110;28;21540;-73
2022/06/15 04:58:18;;;;;;;16.33;4.68;;;16.10;99.90;;;;;;5047976;28;20236;-74
2022/06/15 05:01:10;;;;;;;9.63;4.30;;;16.00;99.90;;;;;;5037282;28;20686;-73
2022/06/15 05:03:59;;;;;;;7.55;4.10;;;16.10;99.90;;;;;;5061867;28;20294;-74
2022/06/15 05:06:48;;;;;;;9.35;4.05;;;16.20;99.90;;;;;;5066202;28;20238;-73
2022/06/15 05:09:38;;;;;;;8.70;4.25;;;16.30;99.90;;;;;;5065412;28;20732;-75
2022/06/15 05:12:26;;;;;;;13.88;4.35;;;16.40;99.90;;;;;;5079508;28;20590;-75
2022/06/15 05:15:18;;;;;;;7.90;3.78;;;16.50;99.90;;;;;;5068652;28;20231;-73
2022/06/15 05:18:11;;;;;;;6.55;4.00;;;16.60;99.90;;;;;;5065638;28;20226;-75
2022/06/15 05:21:01;;;;;;;10.68;4.45;;;16.70;99.90;;;;;;5066003;28;20227;-77
2022/06/15 05:23:50;;;;;;;8.07;4.07;;;16.90;99.90;;;;;;5067299;28;20295;-76
2022/06/15 05:26:49;;;;;;;8.27;3.60;;;16.90;99.90;;;;;;5063909;28;20298;-76
2022/06/15 05:29:39;;;;;;;6.57;3.20;;;17.00;99.90;;;;;;5066601;28;20226;-76
2022/06/15 05:32:35;;;;;;;8.73;3.53;;;17.00;99.90;;;;;;5058821;28;20245;-76
2022/06/15 05:35:24;;;;;;;9.45;3.50;;;17.10;99.90;;;;;;5080873;28;20261;-77
2022/06/15 05:38:14;;;;;;;7.80;3.90;;;17.10;99.90;;;;;;5066147;28;20223;-76
2022/06/15 05:41:02;;;;;;;8.65;3.20;;;17.20;99.90;;;;;;5062341;28;20246;-77
2022/06/15 05:43:57;;;;;;;7.40;3.72;;;17.10;99.90;;;;;;5068520;28;20322;-76
2022/06/15 05:46:46;;;;;;;7.22;3.40;;;17.20;99.90;;;;;;5061566;28;20258;-76
2022/06/15 05:49:47;;;;;;;9.35;3.70;;;17.20;99.90;;;;;;5069919;28;20482;-77
2022/06/15 05:52:47;;;;;;;8.77;3.65;;;17.40;99.90;;;;;;5066043;28;20248;-78
2022/06/15 05:55:36;;;;;;;10.40;3.38;;;17.40;99.90;;;;;;5075573;28;20648;-77
2022/06/15 05:58:25;;;;;;;13.93;3.30;;;17.40;99.90;;;;;;5077472;28;20230;-78
2022/06/15 06:01:20;;;;;;;7.10;3.35;;;17.60;99.90;;;;;;5076870;28;20219;-75
2022/06/15 06:04:11;;;;;;;8.02;3.38;;;17.60;99.90;;;;;;5076096;28;20223;-75
2022/06/15 06:07:02;;;;;;;11.45;3.83;;;17.70;99.90;;;;;;5082152;28;20229;-79
2022/06/15 06:09:51;;;;;;;12.25;4.68;;;17.70;99.90;;;;;;5077755;28;20215;-78
2022/06/15 06:12:40;;;;;;;6.63;3.35;;;17.70;99.90;;;;;;5079030;28;20219;-78
2022/06/15 06:15:29;;;;;;;8.88;4.15;;;17.90;99.90;;;;;;5078516;28;20246;-77
2022/06/15 06:18:18;;;;;;;8.27;4.20;;;18.00;99.90;;;;;;5079827;28;20316;-75
2022/06/15 06:21:11;;;;;;;10.02;4.50;;;18.10;99.90;;;;;;5067499;28;20622;-78
2022/06/15 06:24:02;;;;;;;8.43;3.80;;;19.40;99.90;;;;;;5060793;28;20271;-72
2022/06/15 06:26:58;;;;;;;7.95;3.80;;;20.60;99.90;;;;;;5063968;28;20219;-75
2022/06/15 06:29:47;;;;;;;9.85;3.38;;;21.20;99.90;;;;;;5075929;28;20977;-76
2022/06/15 06:32:36;;;;;;;7.55;3.42;;;20.50;99.90;;;;;;5076544;28;20227;-76
2022/06/15 06:35:24;;;;;;;4.85;2.92;;;20.00;99.90;;;;;;5079836;28;20238;-74
2022/06/15 06:38:14;;;;;;;8.75;2.95;;;19.60;99.90;;;;;;5076283;28;20219;-75
2022/06/15 06:41:05;;;;;;;7.15;3.08;;;19.30;99.90;;;;;;5078369;28;20223;-75
2022/06/15 06:43:54;;;;;;;7.35;2.45;;;19.10;99.90;;;;;;5062958;28;20500;-75
2022/06/15 06:46:48;;;;;;;8.70;2.60;;;19.20;99.90;;;;;;5064017;28;20284;-77
2022/06/15 06:49:37;;;;;;;8.35;2.53;;;19.60;99.90;;;;;;5069463;28;20231;-76
2022/06/15 06:52:26;;;;;;;5.78;2.15;;;20.10;99.90;;;;;;5082266;28;20224;-76
2022/06/15 06:55:14;;;;;;;4.88;2.00;;;19.60;99.90;;;;;;5076337;28;20226;-76
2022/06/15 06:58:05;;;;;;;6.53;2.88;;;19.20;99.90;;;;;;5063648;28;20235;-76
2022/06/15 07:00:53;;;;;;;6.13;2.50;;;19.00;99.90;;;;;;5080789;28;20249;-76
2022/06/15 07:03:42;;;;;;;4.90;2.20;;;19.40;99.90;;;;;;5070638;28;20604;-74
2022/06/15 07:06:30;;;;;;;5.57;2.35;;;19.30;99.90;;;;;;5082011;28;20238;-75
2022/06/15 07:09:19;;;;;;;5.22;2.35;;;19.40;99.90;;;;;;5070417;28;20322;-75
2022/06/15 07:12:08;;;;;;;7.75;2.65;;;19.70;99.90;;;;;;5082696;28;20219;-75
2022/06/15 07:14:58;;;;;;;11.15;2.40;;;20.50;99.90;;;;;;5065137;28;20216;-76
2022/06/15 07:17:47;;;;;;;9.85;2.40;;;20.30;99.90;;;;;;5069496;28;20222;-74
2022/06/15 07:20:35;;;;;;;5.70;2.50;;;20.20;99.90;;;;;;5068678;28;20223;-75
2022/06/15 07:23:24;;;;;;;7.28;2.35;;;20.00;99.90;;;;;;5083975;28;20350;-75
2022/06/15 07:26:16;;;;;;;4.82;2.22;;;20.10;99.90;;;;;;5074463;28;20227;-75
2022/06/15 07:29:05;;;;;;;5.70;2.47;;;20.80;99.90;;;;;;5071727;28;20223;-75
2022/06/15 07:32:00;;;;;;;8.63;2.45;;;21.10;99.90;;;;;;5070036;28;20219;-75
2022/06/15 07:34:48;;;;;;;5.57;2.00;;;21.30;99.90;;;;;;5076571;28;20223;-75
2022/06/15 07:37:37;;;;;;;4.30;2.08;;;21.30;99.90;;;;;;5064961;28;20240;-75
2022/06/15 07:40:45;;;;;;;3.83;2.00;;;21.80;99.90;;;;;;5062380;28;20247;-76
2022/06/15 07:43:35;;;;;;;6.38;2.00;;;21.90;99.90;;;;;;5081449;28;20219;-75
2022/06/15 07:46:24;;;;;;;4.18;1.85;;;22.80;97.00;;;;;;5065392;28;20543;-76
2022/06/15 07:52:23;;;;;;;4.38;1.95;;;23.90;93.20;;;;;;5081490;28;20294;-75
2022/06/15 07:55:14;;;;;;;5.32;2.30;;;24.00;91.00;;;;;;5069025;28;20264;-75
2022/06/15 07:58:04;;;;;;;3.88;2.00;;;24.00;89.60;;;;;;5087079;28;20741;-75
2022/06/15 08:00:53;;;;;;;6.22;2.42;;;23.60;84.90;;;;;;5083495;28;20219;-75
2022/06/15 08:03:41;;;;;;;8.48;2.60;;;23.10;87.40;;;;;;5067998;28;20415;-75
2022/06/15 08:06:32;;;;;;;4.35;2.60;;;22.80;90.60;;;;;;5069390;28;20227;-74
2022/06/15 08:09:21;;;;;;;10.77;2.45;;;23.50;89.50;;;;;;5084705;28;20227;-75
2022/06/15 08:12:16;;;;;;;6.57;2.70;;;23.30;87.40;;;;;;5068992;28;21235;-75
2022/06/15 08:15:06;;;;;;;6.13;2.88;;;22.70;92.50;;;;;;5071404;28;20231;-76
2022/06/15 08:17:58;;;;;;;4.90;1.95;;;22.90;92.50;;;;;;5084853;28;20233;-76
2022/06/15 08:20:50;;;;;;;5.03;2.00;;;23.40;88.50;;;;;;5083661;28;20627;-74
2022/06/15 08:23:44;;;;;;;3.30;2.10;;;24.40;84.90;;;;;;5068197;28;20223;-76
2022/06/15 08:26:37;;;;;;;5.40;1.98;;;24.80;81.70;;;;;;5080666;28;20596;-75
2022/06/15 08:29:26;;;;;;;3.15;1.80;;;25.50;81.70;;;;;;5083374;28;20215;-75
2022/06/15 08:32:16;;;;;;;4.35;2.00;;;25.40;78.60;;;;;;5083078;28;20231;-75
2022/06/15 08:35:06;;;;;;;6.32;2.65;;;25.50;76.20;;;;;;5081005;28;20572;-74
2022/06/15 08:37:55;;;;;;;6.05;1.95;;;24.80;76.90;;;;;;5082013;28;20231;-76
2022/06/15 08:40:49;;;;;;;6.28;2.10;;;25.30;77.10;;;;;;5062967;28;20228;-76
2022/06/15 08:43:52;;;;;;;3.42;1.70;;;24.80;77.70;;;;;;5074266;28;20219;-76
2022/06/15 08:46:55;;;;;;;6.20;2.17;;;25.50;79.00;;;;;;5082191;28;20215;-75
2022/06/15 08:49:53;;;;;;;3.60;1.75;;;26.50;73.70;;;;;;5082217;28;20219;-75
2022/06/15 08:52:45;;;;;;;4.05;1.83;;;25.00;75.40;;;;;;5079544;28;20912;-76
2022/06/15 08:55:42;;;;;;;3.33;1.58;;;25.80;72.60;;;;;;5062348;28;20920;-76
2022/06/15 08:58:42;;;;;;;3.90;1.90;;;25.60;72.00;;;;;;5075451;28;20220;-76
2022/06/15 09:01:35;;;;;;;4.68;1.90;;;26.50;72.60;;;;;;5080275;28;20246;-77
2022/06/15 09:04:35;;;;;;;3.03;1.55;;;27.20;69.20;;;;;;5080245;28;20765;-77
2022/06/15 09:07:43;;;;;;;4.00;1.83;;;28.00;67.30;;;;;;5075725;28;20243;-77
2022/06/15 09:10:44;;;;;;;3.03;1.83;;;26.00;69.30;;;;;;5082648;28;20221;-75
2022/06/15 09:13:48;;;;;;;6.10;2.00;;;24.40;72.60;;;;;;5079926;28;20590;-75
2022/06/15 09:16:47;;;;;;;7.05;2.10;;;23.60;77.60;;;;;;5080179;28;20219;-76
2022/06/15 10:26:02;;;;;;;6.93;2.20;;;31.40;53.90;;;;;;5080990;27;20642;-75
2022/06/15 10:44:27;;;;;;;2.25;1.70;;;30.30;56.10;;;;;;5028914;28;20350;-76
2022/06/15 10:47:21;;;;;;;5.55;2.00;;;29.30;57.50;;;;;;5057473;28;20219;-75
2022/06/15 10:50:27;;;;;;;4.47;2.25;;;28.00;60.00;;;;;;5051706;28;20685;-76
2022/06/15 10:53:42;;;;;;;3.30;1.85;;;28.80;59.60;;;;;;5040705;28;20220;-76
2022/06/15 11:03:11;;;;;;;5.40;2.75;;;30.20;58.40;;;;;;5058261;28;20310;-76
2022/06/15 11:06:00;;;;;;;4.15;1.80;;;32.40;55.70;;;;;;5057466;28;20232;-74
2022/06/15 11:08:48;;;;;;;5.43;1.60;;;30.20;54.80;;;;;;5057107;28;20318;-75
2022/06/15 11:11:42;;;;;;;9.52;2.08;;;29.90;58.20;;;;;;5058009;28;20226;-75
2022/06/15 11:14:34;;;;;;;6.32;2.00;;;30.70;56.10;;;;;;5066193;28;20215;-76
2022/06/15 11:20:43;;;;;;;5.70;1.95;;;26.50;62.70;;;;;;5076045;28;20238;-76
2022/06/15 11:23:42;;;;;;;5.35;2.03;;;25.10;66.40;;;;;;5078447;28;20682;-76
2022/06/15 11:26:54;;;;;;;7.82;2.40;;;24.50;70.60;;;;;;5078492;28;20421;-76
2022/06/15 11:29:51;;;;;;;5.30;2.30;;;24.00;72.30;;;;;;5076545;28;20208;-77
2022/06/15 11:32:45;;;;;;;5.25;2.47;;;23.60;73.30;;;;;;5073872;28;20238;-77
2022/06/15 11:35:38;;;;;;;7.82;2.53;;;23.50;74.10;;;;;;5074211;28;20219;-76
2022/06/15 11:38:38;;;;;;;3.17;1.88;;;23.40;75.30;;;;;;5079712;28;20217;-78
2022/06/15 11:41:31;;;;;;;11.52;2.88;;;23.30;76.00;;;;;;5076620;28;20223;-76
2022/06/15 11:44:23;;;;;;;6.60;2.30;;;23.40;78.90;;;;;;5074149;28;20231;-79
2022/06/15 11:47:28;;;;;;;4.78;2.63;;;23.60;77.70;;;;;;5071159;28;21104;-83
2022/06/15 11:50:28;;;;;;;5.78;2.20;;;23.80;77.00;;;;;;5082717;28;20234;-76
2022/06/15 11:53:30;;;;;;;4.93;1.88;;;26.80;74.60;;;;;;5065106;28;20833;-75
2022/06/15 11:56:22;;;;;;;8.75;2.22;;;31.10;61.70;;;;;;5062921;28;20219;-78
2022/06/15 11:59:24;;;;;;;5.93;2.13;;;33.40;55.60;;;;;;5066459;28;20239;-75
2022/06/15 12:02:32;;;;;;;3.08;1.85;;;35.00;52.10;;;;;;5064732;28;20215;-74
2022/06/15 12:05:35;;;;;;;5.35;1.63;;;35.70;50.10;;;;;;5066317;28;20710;-76
2022/06/15 12:08:34;;;;;;;4.55;1.73;;;36.60;48.20;;;;;;5066042;28;20341;-76
2022/06/15 12:14:41;;;;;;;3.75;1.83;;;36.60;45.60;;;;;;5062372;28;20696;-75
2022/06/15 12:17:36;;;;;;;6.00;1.70;;;37.40;46.00;;;;;;5071542;28;20216;-73
2022/06/15 12:20:40;;;;;;;4.45;1.75;;;32.50;48.40;;;;;;5061826;28;20280;-74
2022/06/15 12:23:40;;;;;;;6.07;1.70;;;30.60;55.00;;;;;;5060485;28;20230;-73
2022/06/15 12:26:39;;;;;;;2.88;1.90;;;28.90;56.30;;;;;;5060005;28;20234;-74
2022/06/15 12:29:41;;;;;;;3.50;1.80;;;27.70;60.00;;;;;;5058107;28;20230;-74
2022/06/15 12:32:34;;;;;;;5.93;2.80;;;27.40;61.70;;;;;;5057103;28;20211;-74
2022/06/15 12:35:33;;;;;;;5.15;1.80;;;26.80;63.10;;;;;;5060321;28;20223;-74
2022/06/15 12:38:35;;;;;;;5.03;2.10;;;26.30;64.70;;;;;;5059428;28;20906;-73
2022/06/15 12:44:38;;;;;;;7.40;2.45;;;25.50;66.00;;;;;;5058396;28;20220;-72
2022/06/15 12:47:29;;;;;;;3.30;1.73;;;25.20;67.50;;;;;;5071044;28;20228;-72
2022/06/15 12:50:47;;;;;;;4.53;2.10;;;25.10;66.50;;;;;;5078316;28;20215;-73
2022/06/15 12:54:00;;;;;;;3.03;1.90;;;28.80;60.40;;;;;;5072041;28;20220;-74
2022/06/15 12:56:59;;;;;;;7.05;1.70;;;27.90;60.00;;;;;;5071250;28;20216;-74
2022/06/15 12:59:55;;;;;;;3.40;1.60;;;26.60;63.20;;;;;;5061700;28;21872;-74
2022/06/15 13:02:52;;;;;;;2.92;1.83;;;25.80;64.20;;;;;;5063537;28;20754;-73
2022/06/15 13:05:42;;;;;;;4.72;1.77;;;25.40;66.80;;;;;;5063015;28;20215;-75
2022/06/15 13:08:39;;;;;;;7.05;1.83;;;25.30;68.10;;;;;;5065632;28;20228;-78
2022/06/15 13:11:29;;;;;;;2.78;1.80;;;25.20;67.70;;;;;;5075489;28;20216;-78
2022/06/15 13:14:24;;;;;;;3.42;1.52;;;25.30;68.30;;;;;;5056451;28;20227;-78
2022/06/15 13:17:16;;;;;;;5.20;2.00;;;25.00;66.20;;;;;;5059154;28;20228;-77
2022/06/15 13:20:12;;;;;;;5.97;2.10;;;24.60;68.80;;;;;;5059241;28;20235;-76
2022/06/15 13:23:02;;;;;;;5.13;2.10;;;24.40;70.80;;;;;;5061544;28;20227;-76
2022/06/15 13:25:53;;;;;;;3.95;2.20;;;23.70;71.50;;;;;;5064931;28;20295;-75
2022/06/15 13:28:45;;;;;;;5.97;2.00;;;23.50;72.10;;;;;;5066873;28;20503;-74
2022/06/15 13:31:42;;;;;;;5.03;2.20;;;23.40;72.60;;;;;;5059860;28;20268;-77
2022/06/15 13:34:47;;;;;;;3.58;2.00;;;23.50;73.00;;;;;;5071136;28;20216;-76
2022/06/15 13:37:36;;;;;;;2.25;1.95;;;23.50;73.60;;;;;;5061549;28;20933;-76
2022/06/15 13:41:05;;;;;;;2.08;1.70;;;23.50;73.90;;;;;;5055813;28;20220;-74
2022/06/15 13:44:16;;;;;;;3.50;2.05;;;23.50;73.00;;;;;;5062132;28;20232;-76
2022/06/15 13:47:06;;;;;;;3.35;2.28;;;23.60;72.40;;;;;;5076651;28;20244;-75
2022/06/15 13:50:00;;;;;;;3.65;1.95;;;23.50;72.70;;;;;;5067302;28;20413;-76
2022/06/15 13:52:49;;;;;;;4.15;1.65;;;23.50;73.80;;;;;;5059612;28;20224;-75
2022/06/15 13:55:52;;;;;;;4.63;2.20;;;23.60;73.90;;;;;;5067989;28;20231;-76
2022/06/15 13:59:09;;;;;;;6.40;2.28;;;23.70;75.50;;;;;;5053394;28;20239;-76
2022/06/15 14:02:25;;;;;;;4.40;2.17;;;23.70;75.00;;;;;;5063718;28;20232;-76
2022/06/15 14:05:52;;;;;;;5.35;2.20;;;23.60;75.50;;;;;;5063385;28;20321;-76
2022/06/15 14:09:04;;;;;;;5.07;2.33;;;23.60;75.50;;;;;;5057814;28;20239;-77
2022/06/15 14:12:09;;;;;;;3.25;2.10;;;23.60;75.20;;;;;;5052367;28;21089;-75
2022/06/15 14:15:37;;;;;;;3.42;2.33;;;23.60;74.60;;;;;;5061506;28;20234;-75
2022/06/15 14:18:41;;;;;;;4.50;2.42;;;23.80;75.90;;;;;;5033799;28;20228;-77
2022/06/15 14:21:32;;;;;;;7.03;1.95;;;23.70;73.70;;;;;;5073738;28;20842;-75
2022/06/15 14:24:27;;;;;;;5.22;2.38;;;23.80;74.70;;;;;;5062067;28;20694;-73
2022/06/15 14:27:25;;;;;;;11.32;2.60;;;23.60;74.10;;;;;;5057065;28;20235;-76
2022/06/15 14:30:21;;;;;;;7.22;2.75;;;23.70;76.10;;;;;;5057166;28;20228;-76
2022/06/15 14:33:17;;;;;;;3.30;2.13;;;23.70;76.30;;;;;;5057791;28;20216;-76
2022/06/15 14:36:13;;;;;;;4.78;2.33;;;23.50;77.50;;;;;;5059498;28;20220;-77
2022/06/15 14:39:10;;;;;;;4.07;2.28;;;23.50;77.30;;;;;;5060172;28;20303;-76
2022/06/15 16:47:51;;;;;;;4.38;1.98;;;21.20;90.90;;;;;;5052030;27;20537;-72
2022/06/15 16:50:42;;;;;;;6.10;1.83;;;21.10;91.50;;;;;;5039544;28;20224;-72
2022/06/15 16:53:31;;;;;;;5.00;2.00;;;21.10;91.60;;;;;;5069865;28;20662;-72
2022/06/15 16:56:26;;;;;;;6.60;1.98;;;21.10;92.10;;;;;;5072918;28;20318;-72
2022/06/15 16:59:19;;;;;;;4.95;2.42;;;21.20;93.00;;;;;;5073352;28;20226;-72
2022/06/15 17:02:09;;;;;;;6.13;2.25;;;21.20;93.10;;;;;;5071285;28;20236;-73
2022/06/15 17:04:59;;;;;;;4.20;2.00;;;21.20;93.40;;;;;;5074357;28;20285;-72
2022/06/15 17:07:49;;;;;;;5.97;2.13;;;21.20;92.90;;;;;;5071049;28;20314;-73
2022/06/15 17:10:38;;;;;;;10.38;4.38;;;21.20;92.90;;;;;;5070540;28;20227;-73
2022/06/15 17:13:29;;;;;;;4.65;2.50;;;21.10;93.90;;;;;;5066033;28;20227;-72
2022/06/15 17:16:18;;;;;;;3.17;2.03;;;21.10;92.90;;;;;;5066163;28;20226;-71
2022/06/15 17:19:07;;;;;;;4.28;2.30;;;21.10;93.50;;;;;;5070473;28;20216;-71
2022/06/15 17:22:01;;;;;;;2.95;1.92;;;21.10;94.50;;;;;;5068745;28;20209;-74
2022/06/15 17:25:10;;;;;;;2.55;1.90;;;21.00;94.10;;;;;;5065878;28;20673;-71
2022/06/15 17:28:01;;;;;;;5.70;2.15;;;20.90;95.50;;;;;;5073591;28;20254;-72
2022/06/15 17:30:50;;;;;;;2.63;2.10;;;21.00;95.70;;;;;;5065716;28;20246;-73
2022/06/15 17:33:38;;;;;;;4.47;1.98;;;21.00;97.00;;;;;;5068938;28;20228;-74
2022/06/15 17:36:27;;;;;;;3.13;2.00;;;21.00;95.90;;;;;;5065917;28;20231;-73
2022/06/15 17:39:17;;;;;;;3.67;2.00;;;21.00;95.80;;;;;;5071398;28;20219;-73
2022/06/15 17:42:06;;;;;;;2.72;2.05;;;21.00;95.80;;;;;;5084806;28;20227;-73
2022/06/15 17:44:56;;;;;;;3.65;1.90;;;20.90;95.70;;;;;;5069370;28;20216;-72
2022/06/15 17:47:44;;;;;;;6.10;2.40;;;20.90;95.10;;;;;;5067018;28;20578;-73
2022/06/15 17:50:33;;;;;;;4.47;2.33;;;20.80;95.60;;;;;;5052831;28;20223;-74
2022/06/15 17:53:22;;;;;;;5.97;2.08;;;20.80;95.00;;;;;;5037936;28;20370;-73
2022/06/15 17:56:12;;;;;;;5.28;2.38;;;20.80;94.20;;;;;;5037298;28;20231;-73
2022/06/15 17:59:03;;;;;;;4.63;2.20;;;20.70;94.40;;;;;;5059698;28;20225;-74
2022/06/15 18:01:53;;;;;;;3.65;2.38;;;20.70;94.90;;;;;;5057104;28;20528;-75
2022/06/15 18:04:43;;;;;;;2.72;2.00;;;20.70;94.40;;;;;;5056067;28;20274;-74
2022/06/15 18:07:32;;;;;;;5.50;2.08;;;20.70;94.40;;;;;;5056172;28;20235;-73
2022/06/15 18:10:21;;;;;;;4.03;2.25;;;20.70;94.70;;;;;;5058670;28;20219;-71
2022/06/15 18:13:11;;;;;;;4.07;2.30;;;20.60;94.90;;;;;;5055033;28;20296;-73
2022/06/15 18:16:00;;;;;;;6.22;2.13;;;20.50;95.20;;;;;;5055966;28;20462;-75
2022/06/15 18:18:53;;;;;;;4.53;2.30;;;20.50;96.00;;;;;;5060102;28;20220;-74
2022/06/15 18:21:44;;;;;;;3.65;2.08;;;20.50;96.80;;;;;;5058383;28;21101;-74
2022/06/15 18:24:36;;;;;;;4.32;2.13;;;20.40;98.20;;;;;;5053163;28;20239;-76
2022/06/15 18:27:24;;;;;;;3.08;2.00;;;20.40;98.50;;;;;;5059994;28;20319;-75
2022/06/15 18:30:17;;;;;;;4.40;2.20;;;20.30;99.90;;;;;;5056810;28;20224;-74
2022/06/15 18:33:06;;;;;;;5.45;2.38;;;20.20;99.90;;;;;;5054645;28;20212;-73
2022/06/15 18:35:55;;;;;;;9.27;3.85;;;20.00;99.90;;;;;;5058215;28;20224;-75
2022/06/15 18:38:45;;;;;;;6.95;2.67;;;20.00;99.90;;;;;;5055056;28;20232;-74
2022/06/15 18:41:34;;;;;;;3.13;2.33;;;19.90;99.90;;;;;;5057763;28;20217;-73
2022/06/15 18:47:37;;;;;;;4.22;2.50;;;19.80;99.90;;;;;;5055214;28;20271;-73
2022/06/15 18:50:33;;;;;;;7.80;2.58;;;19.70;99.90;;;;;;5059210;28;20212;-76
2022/06/15 18:53:21;;;;;;;4.25;2.80;;;19.70;99.90;;;;;;5058737;28;20780;-74